Pagrindinis puslapis
METAR-TAF:

METAR-TAF

Oro uostai :

Rivnė, Ukraina

platuma: 50-35N, ilguma: 026-08E, Aukštis: 231 m

Dabartinis oras

Ataskaita buvo paskelbta 9 valandos ir 24 minutes, ne 15:00 UTC
Vėjas 8 kt iš Šiaurės, svyruoja nuo Šiaurės Vakarų ir Šiaurės Rytų
Temperatūra 19°C
Drėgmė 16%
Slėgis 1025 hPa
Matomumas 10 km arba daugiau
nėra debesų žemiau 1500 m ir nėra kamuolinių lietaus debesų

METAR: UKLR 081500Z 36004MPS 310V040 CAVOK 19/M07 Q1025 NOSIG

Laikas: 03:24 (00:24 UTC)

Prognozė

Ataskaita buvo paskelbta 13 valandos ir 19 minutes, ne 11:05 UTC
Prognozė galioja nuo 08 metu 12 UTC su 08 metu 21 UTC
Vėjas 8 kt iš Šiaurės Vakarų
Matomumas 10 km arba daugiau
Išsisklaidę debesys ne aukštis 2600 ft

TAF: UKLR 081105Z 0812/0821 32004MPS 9999 SCT026

Orai ataskaitas ir orų prognozės (METAR, TAF).

turimą stotys yra geltonos ir raudonos taškus žemėlapyje.

Perkelti pele per norėdami pamatyti stoties vardą.

Tada spustelėkite, norėdami matyti oro stebėjimo ir prognozės.

Norėdami pakeisti žemėlapį: spustelėkite ant žalios mygtukų su juodo kryžiaus žemyn,; žalią mygtuką su brūkšneliu, jei norite nutolinti; arba žalių rodyklių gretimoms žemėlapius.


METAR-TAF: